Wetterdaten: Woche 27.04.15 - 03.05.15 (KW18)
Datum Zeit Temp. A. Feuchte A. Luftdruck Regen Wind Richtung Sonnenschein ET UV Solar Taupunkt Windchill Windben Empfang
27.04.2015 00:00 12,5 C 77 % 1003,5 hPa 0,0 l/m 0,2 km/h (0 Bft) N 0,00 h 0,000 mm 0,0 UV-I 0 W/m 8,5 C 12,5 C 1,0 km/h (0 Bft) 0,00 %
27.04.2015 01:00 11,3 C 81 % 1003,3 hPa 0,0 l/m 0,0 km/h (0 Bft) N 0,00 h 0,000 mm 0,0 UV-I 0 W/m 8,2 C 11,3 C 0,0 km/h (0 Bft) 0,00 %
27.04.2015 02:00 9,9 C 89 % 1002,9 hPa 0,0 l/m 0,0 km/h (0 Bft) N 0,00 h 0,000 mm 0,0 UV-I 0 W/m 8,1 C 9,9 C 0,0 km/h (0 Bft) 0,00 %
27.04.2015 03:00 8,7 C 94 % 1002,6 hPa 0,0 l/m 0,0 km/h (0 Bft) N 0,00 h 0,000 mm 0,0 UV-I 0 W/m 7,7 C 8,7 C 0,0 km/h (0 Bft) 0,00 %
27.04.2015 04:00 8,2 C 97 % 1002,0 hPa 0,0 l/m 0,0 km/h (0 Bft) N 0,00 h 0,000 mm 0,0 UV-I 0 W/m 7,7 C 8,2 C 0,0 km/h (0 Bft) 0,00 %
27.04.2015 05:00 7,6 C 99 % 1001,6 hPa 0,0 l/m 0,0 km/h (0 Bft) N 0,00 h 0,000 mm 0,0 UV-I 0 W/m 7,4 C 7,6 C 0,0 km/h (0 Bft) 0,00 %
27.04.2015 06:00 8,2 C 99 % 1001,5 hPa 0,0 l/m 0,0 km/h (0 Bft) N 0,75 h 0,000 mm 1,0 UV-I 63 W/m 8,0 C 8,2 C 0,0 km/h (0 Bft) 0,00 %
27.04.2015 07:00 10,7 C 87 % 1001,1 hPa 0,0 l/m 0,0 km/h (0 Bft) N 0,50 h 0,000 mm 1,0 UV-I 141 W/m 8,5 C 10,7 C 0,0 km/h (0 Bft) 0,00 %
27.04.2015 08:00 13,4 C 74 % 1000,2 hPa 0,0 l/m 0,5 km/h (0 Bft) O-NO 1,00 h 0,000 mm 2,0 UV-I 357 W/m 8,8 C 13,4 C 2,0 km/h (1 Bft) 0,00 %
27.04.2015 09:00 16,4 C 63 % 999,5 hPa 0,0 l/m 3,2 km/h (1 Bft) O-SO 1,00 h 0,000 mm 3,0 UV-I 375 W/m 9,2 C 16,4 C 4,9 km/h (1 Bft) 0,00 %
27.04.2015 10:00 19,4 C 51 % 999,1 hPa 0,0 l/m 3,0 km/h (1 Bft) SO 1,00 h 0,000 mm 4,0 UV-I 505 W/m 9,0 C 19,4 C 4,0 km/h (1 Bft) 0,00 %
27.04.2015 11:00 20,7 C 47 % 998,7 hPa 0,0 l/m 2,7 km/h (1 Bft) O-SO 1,00 h 0,000 mm 4,7 UV-I 629 W/m 8,9 C 20,7 C 5,0 km/h (1 Bft) 0,00 %
27.04.2015 12:00 21,4 C 43 % 998,2 hPa 0,0 l/m 0,4 km/h (0 Bft) O-SO 1,00 h 0,000 mm 5,3 UV-I 654 W/m 8,4 C 21,4 C 3,0 km/h (1 Bft) 0,00 %
27.04.2015 13:00 23,3 C 38 % 997,3 hPa 0,0 l/m 5,3 km/h (1 Bft) O-SO 1,00 h 0,000 mm 5,3 UV-I 830 W/m 7,9 C 23,1 C 7,9 km/h (2 Bft) 0,00 %
27.04.2015 14:00 24,4 C 29 % 996,5 hPa 0,0 l/m 3,3 km/h (1 Bft) O-SO 1,00 h 0,000 mm 4,7 UV-I 864 W/m 5,2 C 24,4 C 4,0 km/h (1 Bft) 0,00 %
27.04.2015 15:00 24,6 C 29 % 995,5 hPa 0,0 l/m 5,8 km/h (2 Bft) O 1,00 h 0,000 mm 2,0 UV-I 864 W/m 5,1 C 24,2 C 8,9 km/h (2 Bft) 0,00 %
27.04.2015 16:00 24,5 C 33 % 994,7 hPa 0,0 l/m 6,8 km/h (2 Bft) O 1,00 h 0,000 mm 1,7 UV-I 793 W/m 7,0 C 24,3 C 10,9 km/h (2 Bft) 0,00 %
27.04.2015 17:00 24,2 C 35 % 994,2 hPa 0,0 l/m 5,9 km/h (2 Bft) O-SO 1,00 h 0,000 mm 1,0 UV-I 693 W/m 7,9 C 23,9 C 6,9 km/h (2 Bft) 0,00 %
27.04.2015 18:00 23,5 C 33 % 993,5 hPa 0,0 l/m 0,8 km/h (0 Bft) N 0,50 h 0,000 mm 1,0 UV-I 255 W/m 5,9 C 23,5 C 2,0 km/h (1 Bft) 0,00 %
27.04.2015 19:00 21,5 C 32 % 993,9 hPa 0,0 l/m 0,5 km/h (0 Bft) W-SW 0,75 h 0,000 mm 0,0 UV-I 125 W/m 3,9 C 21,5 C 2,0 km/h (1 Bft) 0,00 %
27.04.2015 20:00 18,9 C 38 % 994,7 hPa 0,0 l/m 0,1 km/h (0 Bft) N 0,00 h 0,000 mm 0,0 UV-I 0 W/m 4,3 C 18,9 C 1,0 km/h (0 Bft) 0,00 %
27.04.2015 21:00 17,4 C 43 % 995,3 hPa 0,0 l/m 0,0 km/h (0 Bft) N 0,00 h 0,000 mm 0,0 UV-I 0 W/m 4,5 C 17,4 C 0,0 km/h (0 Bft) 0,00 %
27.04.2015 22:00 15,3 C 53 % 995,5 hPa 0,0 l/m 0,0 km/h (0 Bft) N 0,00 h 0,000 mm 0,0 UV-I 0 W/m 5,6 C 15,3 C 0,0 km/h (0 Bft) 0,00 %
27.04.2015 23:00 14,0 C 56 % 995,8 hPa 0,0 l/m 0,0 km/h (0 Bft) N 0,00 h 0,000 mm 0,0 UV-I 0 W/m 5,4 C 14,0 C 0,0 km/h (0 Bft) 0,00 %
28.04.2015 00:00 12,7 C 62 % 996,2 hPa 0,0 l/m 0,0 km/h (0 Bft) N 0,00 h 0,000 mm 0,0 UV-I 0 W/m 5,6 C 12,7 C 0,0 km/h (0 Bft) 0,00 %
28.04.2015 01:00 11,4 C 69 % 996,7 hPa 0,0 l/m 0,0 km/h (0 Bft) N 0,00 h 0,000 mm 0,0 UV-I 0 W/m 6,0 C 11,4 C 0,0 km/h (0 Bft) 0,00 %
28.04.2015 02:00 10,5 C 72 % 996,9 hPa 0,0 l/m 0,0 km/h (0 Bft) N 0,00 h 0,000 mm 0,0 UV-I 0 W/m 5,7 C 10,5 C 0,0 km/h (0 Bft) 0,00 %
28.04.2015 03:00 10,1 C 76 % 997,2 hPa 0,0 l/m 0,0 km/h (0 Bft) N 0,00 h 0,000 mm 0,0 UV-I 0 W/m 6,1 C 10,1 C 0,0 km/h (0 Bft) 0,00 %
28.04.2015 04:00 10,2 C 78 % 997,6 hPa 0,0 l/m 0,0 km/h (0 Bft) N 0,00 h 0,000 mm 0,0 UV-I 0 W/m 6,5 C 10,2 C 0,0 km/h (0 Bft) 0,00 %
28.04.2015 05:00 10,3 C 77 % 998,2 hPa 0,0 l/m 0,0 km/h (0 Bft) N 0,00 h 0,000 mm 0,0 UV-I 0 W/m 6,4 C 10,3 C 0,0 km/h (0 Bft) 0,00 %
28.04.2015 06:00 11,3 C 78 % 999,1 hPa 0,0 l/m 2,2 km/h (1 Bft) SW 0,00 h 0,000 mm 0,0 UV-I 19 W/m 7,5 C 11,3 C 4,0 km/h (1 Bft) 0,00 %
28.04.2015 07:00 12,3 C 80 % 1000,0 hPa 0,0 l/m 2,3 km/h (1 Bft) S 0,00 h 0,000 mm 1,0 UV-I 50 W/m 8,9 C 12,3 C 4,0 km/h (1 Bft) 0,00 %
28.04.2015 08:00 12,9 C 83 % 1000,6 hPa 0,0 l/m 0,7 km/h (0 Bft) W-SW 0,00 h 0,000 mm 1,0 UV-I 65 W/m 10,0 C 12,9 C 2,0 km/h (1 Bft) 0,00 %
28.04.2015 09:00 13,1 C 80 % 1001,6 hPa 0,0 l/m 5,6 km/h (1 Bft) W-SW 0,00 h 0,000 mm 1,3 UV-I 140 W/m 9,7 C 12,3 C 9,9 km/h (2 Bft) 0,00 %
28.04.2015 10:00 13,7 C 76 % 1002,8 hPa 0,0 l/m 3,2 km/h (1 Bft) W 0,00 h 0,000 mm 1,3 UV-I 187 W/m 9,4 C 13,6 C 5,0 km/h (1 Bft) 0,00 %
28.04.2015 11:00 12,1 C 80 % 1004,9 hPa 0,0 l/m 8,1 km/h (2 Bft) W-SW 0,00 h 0,000 mm 1,0 UV-I 88 W/m 8,8 C 10,7 C 12,9 km/h (3 Bft) 0,00 %
28.04.2015 12:00 10,9 C 79 % 1007,0 hPa 0,0 l/m 10,8 km/h (2 Bft) S-SW 0,00 h 0,000 mm 1,7 UV-I 153 W/m 7,3 C 8,4 C 16,9 km/h (3 Bft) 0,00 %
28.04.2015 13:00 10,0 C 71 % 1009,0 hPa 0,0 l/m 13,3 km/h (3 Bft) N-NO 0,00 h 0,000 mm 1,3 UV-I 180 W/m 5,0 C 6,4 C 18,0 km/h (3 Bft) 0,00 %
28.04.2015 14:00 9,3 C 74 % 1010,5 hPa 0,0 l/m 11,9 km/h (2 Bft) W-NW 0,00 h 0,000 mm 1,3 UV-I 168 W/m 4,8 C 6,0 C 16,9 km/h (3 Bft) 0,00 %
28.04.2015 15:00 8,3 C 83 % 1011,9 hPa 0,3 l/m 9,6 km/h (2 Bft) W-SW 0,00 h 0,000 mm 1,0 UV-I 124 W/m 5,6 C 6,0 C 14,8 km/h (3 Bft) 0,00 %
28.04.2015 16:00 7,1 C 86 % 1013,6 hPa 0,6 l/m 5,8 km/h (2 Bft) W-SW 0,00 h 0,000 mm 1,0 UV-I 117 W/m 5,0 C 6,3 C 8,9 km/h (2 Bft) 0,00 %
28.04.2015 17:00 6,4 C 91 % 1015,5 hPa 0,6 l/m 8,2 km/h (2 Bft) W-SW 0,00 h 0,000 mm 1,0 UV-I 71 W/m 5,1 C 4,3 C 12,9 km/h (3 Bft) 0,00 %
28.04.2015 18:00 6,2 C 93 % 1017,2 hPa 0,6 l/m 10,0 km/h (2 Bft) W-SW 0,00 h 0,000 mm 0,0 UV-I 15 W/m 5,1 C 3,3 C 14,8 km/h (3 Bft) 0,00 %
28.04.2015 19:00 6,1 C 94 % 1018,2 hPa 0,3 l/m 2,8 km/h (1 Bft) W-SW 0,00 h 0,000 mm 0,0 UV-I 1 W/m 5,3 C 6,1 C 6,9 km/h (2 Bft) 0,00 %
28.04.2015 20:00 6,3 C 90 % 1019,5 hPa 0,0 l/m 2,4 km/h (1 Bft) W-SW 0,00 h 0,000 mm 0,0 UV-I 0 W/m 4,7 C 6,3 C 5,9 km/h (2 Bft) 0,00 %
28.04.2015 21:00 6,3 C 90 % 1020,3 hPa 0,0 l/m 0,4 km/h (0 Bft) SW 0,00 h 0,000 mm 0,0 UV-I 0 W/m 4,8 C 6,3 C 2,0 km/h (1 Bft) 0,00 %
28.04.2015 22:00 6,2 C 91 % 1020,4 hPa 0,0 l/m 2,1 km/h (1 Bft) W-SW 0,00 h 0,000 mm 0,0 UV-I 0 W/m 4,8 C 6,2 C 4,0 km/h (1 Bft) 0,00 %
28.04.2015 23:00 6,6 C 86 % 1020,6 hPa 0,0 l/m 0,8 km/h (0 Bft) N 0,00 h 0,000 mm 0,0 UV-I 0 W/m 4,3 C 6,6 C 3,0 km/h (1 Bft) 0,00 %
29.04.2015 00:00 6,4 C 85 % 1021,0 hPa 0,0 l/m 1,4 km/h (1 Bft) SO 0,00 h 0,000 mm 0,0 UV-I 0 W/m 4,1 C 6,4 C 4,0 km/h (1 Bft) 0,00 %
29.04.2015 01:00 5,6 C 88 % 1021,3 hPa 0,0 l/m 2,4 km/h (1 Bft) W-SW 0,00 h 0,000 mm 0,0 UV-I 0 W/m 3,8 C 5,6 C 4,0 km/h (1 Bft) 0,00 %
29.04.2015 02:00 5,0 C 90 % 1021,5 hPa 0,0 l/m 1,9 km/h (1 Bft) N 0,00 h 0,000 mm 0,0 UV-I 0 W/m 3,5 C 4,8 C 3,0 km/h (1 Bft) 0,00 %
29.04.2015 03:00 4,2 C 94 % 1021,8 hPa 0,0 l/m 0,0 km/h (0 Bft) N 0,00 h 0,000 mm 0,0 UV-I 0 W/m 3,3 C 4,2 C 0,0 km/h (0 Bft) 0,00 %
29.04.2015 04:00 4,5 C 95 % 1021,8 hPa 0,0 l/m 0,0 km/h (0 Bft) N 0,00 h 0,000 mm 0,0 UV-I 0 W/m 3,8 C 4,5 C 0,0 km/h (0 Bft) 0,00 %
29.04.2015 05:00 4,8 C 95 % 1021,8 hPa 0,0 l/m 0,0 km/h (0 Bft) N 0,00 h 0,000 mm 0,0 UV-I 0 W/m 4,1 C 4,8 C 0,0 km/h (0 Bft) 0,00 %
29.04.2015 06:00 5,4 C 93 % 1021,4 hPa 0,0 l/m 0,1 km/h (0 Bft) N 0,00 h 0,000 mm 1,0 UV-I 34 W/m 4,3 C 5,4 C 1,0 km/h (0 Bft) 0,00 %
29.04.2015 07:00 8,1 C 78 % 1020,3 hPa 0,0 l/m 0,1 km/h (0 Bft) N 1,00 h 0,000 mm 1,0 UV-I 214 W/m 4,3 C 8,1 C 1,0 km/h (0 Bft) 0,00 %
29.04.2015 08:00 8,3 C 75 % 1020,5 hPa 0,0 l/m 0,0 km/h (0 Bft) N 0,25 h 0,000 mm 1,7 UV-I 203 W/m 4,2 C 8,3 C 0,0 km/h (0 Bft) 0,00 %
29.04.2015 09:00 9,8 C 67 % 1019,9 hPa 0,0 l/m 1,4 km/h (1 Bft) O 0,50 h 0,000 mm 2,7 UV-I 351 W/m 3,9 C 9,8 C 3,0 km/h (1 Bft) 0,00 %
29.04.2015 10:00 10,5 C 60 % 1019,6 hPa 0,0 l/m 3,0 km/h (1 Bft) NO 0,75 h 0,000 mm 3,7 UV-I 453 W/m 2,9 C 10,0 C 5,0 km/h (1 Bft) 0,00 %
29.04.2015 11:00 11,6 C 52 % 1019,3 hPa 0,0 l/m 2,6 km/h (1 Bft) O-NO 1,00 h 0,000 mm 4,7 UV-I 609 W/m 2,0 C 11,3 C 5,0 km/h (1 Bft) 0,00 %
29.04.2015 12:00 12,8 C 48 % 1018,6 hPa 0,0 l/m 6,5 km/h (2 Bft) O 1,00 h 0,000 mm 5,0 UV-I 704 W/m 2,0 C 12,3 C 8,9 km/h (2 Bft) 0,00 %
29.04.2015 13:00 13,4 C 42 % 1017,8 hPa 0,0 l/m 4,7 km/h (1 Bft) O-NO 1,00 h 0,000 mm 5,0 UV-I 752 W/m 0,8 C 12,7 C 8,9 km/h (2 Bft) 0,00 %
29.04.2015 14:00 14,3 C 38 % 1016,8 hPa 0,0 l/m 6,8 km/h (2 Bft) O-NO 1,00 h 0,000 mm 4,0 UV-I 745 W/m 0,1 C 13,7 C 9,9 km/h (2 Bft) 0,00 %
29.04.2015 15:00 14,2 C 35 % 1015,8 hPa 0,0 l/m 13,4 km/h (3 Bft) O-SO 1,00 h 0,000 mm 2,0 UV-I 713 W/m -1,1 C 11,0 C 16,9 km/h (3 Bft) 0,00 %
29.04.2015 16:00 13,8 C 36 % 1014,9 hPa 0,0 l/m 10,4 km/h (2 Bft) O-SO 1,00 h 0,000 mm 2,0 UV-I 469 W/m -1,1 C 11,6 C 15,8 km/h (3 Bft) 0,00 %
29.04.2015 17:00 13,7 C 38 % 1014,5 hPa 0,0 l/m 10,0 km/h (2 Bft) O-SO 1,00 h 0,000 mm 1,3 UV-I 453 W/m -0,3 C 11,2 C 13,9 km/h (3 Bft) 0,00 %
29.04.2015 18:00 13,2 C 41 % 1014,3 hPa 0,0 l/m 8,2 km/h (2 Bft) N-NO 1,00 h 0,000 mm 1,0 UV-I 429 W/m 0,1 C 12,0 C 13,0 km/h (3 Bft) 0,00 %
29.04.2015 19:00 11,7 C 47 % 1014,9 hPa 0,0 l/m 4,3 km/h (1 Bft) O 1,00 h 0,000 mm 0,0 UV-I 72 W/m 0,6 C 11,6 C 8,9 km/h (2 Bft) 0,00 %
29.04.2015 20:00 10,4 C 50 % 1015,3 hPa 0,0 l/m 3,3 km/h (1 Bft) S 0,00 h 0,000 mm 0,0 UV-I 0 W/m 0,3 C 10,4 C 6,9 km/h (2 Bft) 0,00 %
29.04.2015 21:00 9,6 C 49 % 1015,5 hPa 0,0 l/m 6,5 km/h (2 Bft) O 0,00 h 0,000 mm 0,0 UV-I 0 W/m -0,6 C 9,0 C 9,9 km/h (2 Bft) 0,00 %
29.04.2015 22:00 8,2 C 52 % 1015,4 hPa 0,0 l/m 2,4 km/h (1 Bft) O-SO 0,00 h 0,000 mm 0,0 UV-I 0 W/m -1,1 C 8,2 C 4,9 km/h (1 Bft) 0,00 %
29.04.2015 23:00 7,8 C 52 % 1015,2 hPa 0,0 l/m 1,0 km/h (0 Bft) O-SO 0,00 h 0,000 mm 0,0 UV-I 0 W/m -1,5 C 7,8 C 4,0 km/h (1 Bft) 0,00 %
30.04.2015 00:00 7,4 C 53 % 1015,2 hPa 0,0 l/m 7,4 km/h (2 Bft) O 0,00 h 0,000 mm 0,0 UV-I 0 W/m -1,7 C 5,6 C 9,9 km/h (2 Bft) 0,00 %
30.04.2015 01:00 6,1 C 61 % 1015,4 hPa 0,0 l/m 1,2 km/h (1 Bft) O-SO 0,00 h 0,000 mm 0,0 UV-I 0 W/m -0,9 C 6,1 C 3,0 km/h (1 Bft) 0,00 %
30.04.2015 02:00 5,0 C 66 % 1015,8 hPa 0,0 l/m 0,0 km/h (0 Bft) N 0,00 h 0,000 mm 0,0 UV-I 0 W/m -0,9 C 5,0 C 0,0 km/h (0 Bft) 0,00 %
30.04.2015 03:00 3,5 C 75 % 1016,0 hPa 0,0 l/m 0,0 km/h (0 Bft) N 0,00 h 0,000 mm 0,0 UV-I 0 W/m -0,6 C 3,5 C 0,0 km/h (0 Bft) 0,00 %
30.04.2015 04:00 2,8 C 79 % 1016,3 hPa 0,0 l/m 0,0 km/h (0 Bft) N 0,00 h 0,000 mm 0,0 UV-I 0 W/m -0,5 C 2,8 C 0,0 km/h (0 Bft) 0,00 %
30.04.2015 05:00 2,3 C 88 % 1016,4 hPa 0,0 l/m 0,0 km/h (0 Bft) N 0,00 h 0,000 mm 0,0 UV-I 0 W/m 0,4 C 2,3 C 0,0 km/h (0 Bft) 0,00 %
30.04.2015 06:00 3,6 C 87 % 1016,8 hPa 0,0 l/m 0,0 km/h (0 Bft) N 0,75 h 0,000 mm 0,0 UV-I 84 W/m 1,6 C 3,6 C 0,0 km/h (0 Bft) 0,00 %
30.04.2015 07:00 5,8 C 76 % 1016,9 hPa 0,0 l/m 0,0 km/h (0 Bft) N 0,00 h 0,000 mm 1,0 UV-I 100 W/m 1,8 C 5,8 C 0,0 km/h (0 Bft) 0,00 %
30.04.2015 08:00 8,6 C 62 % 1017,0 hPa 0,0 l/m 0,0 km/h (0 Bft) N 0,50 h 0,000 mm 2,0 UV-I 257 W/m 1,7 C 8,6 C 0,0 km/h (0 Bft) 0,00 %
30.04.2015 09:00 10,0 C 59 % 1017,0 hPa 0,0 l/m 0,2 km/h (0 Bft) W-SW 0,00 h 0,000 mm 2,0 UV-I 245 W/m 2,2 C 10,0 C 1,0 km/h (0 Bft) 0,00 %
30.04.2015 10:00 12,5 C 54 % 1016,8 hPa 0,0 l/m 1,3 km/h (1 Bft) S-SW 0,50 h 0,000 mm 3,0 UV-I 428 W/m 3,5 C 12,5 C 3,0 km/h (1 Bft) 0,00 %
30.04.2015 11:00 12,9 C 64 % 1016,9 hPa 0,0 l/m 4,1 km/h (1 Bft) W-SW 0,50 h 0,000 mm 3,3 UV-I 342 W/m 6,3 C 12,9 C 7,9 km/h (2 Bft) 0,00 %
30.04.2015 12:00 12,3 C 72 % 1016,9 hPa 0,3 l/m 6,9 km/h (2 Bft) W-SW 0,75 h 0,000 mm 1,7 UV-I 442 W/m 7,3 C 11,1 C 12,9 km/h (3 Bft) 0,00 %
30.04.2015 13:00 10,2 C 85 % 1017,0 hPa 1,5 l/m 3,1 km/h (1 Bft) NW 0,00 h 0,000 mm 1,7 UV-I 162 W/m 7,8 C 10,2 C 5,9 km/h (2 Bft) 0,00 %
30.04.2015 14:00 11,0 C 79 % 1016,6 hPa 0,3 l/m 1,3 km/h (1 Bft) W-SW 0,00 h 0,000 mm 2,3 UV-I 340 W/m 7,4 C 11,0 C 3,0 km/h (1 Bft) 0,00 %
30.04.2015 15:00 10,8 C 74 % 1016,3 hPa 0,0 l/m 1,9 km/h (1 Bft) SW 0,00 h 0,000 mm 1,0 UV-I 211 W/m 6,3 C 10,8 C 4,0 km/h (1 Bft) 0,00 %
30.04.2015 16:00 10,6 C 74 % 1016,0 hPa 0,0 l/m 0,1 km/h (0 Bft) N 0,00 h 0,000 mm 1,7 UV-I 133 W/m 6,2 C 10,6 C 1,0 km/h (0 Bft) 0,00 %
30.04.2015 17:00 13,8 C 53 % 1015,1 hPa 0,0 l/m 0,1 km/h (0 Bft) N 0,75 h 0,000 mm 1,3 UV-I 731 W/m 4,4 C 13,8 C 1,0 km/h (0 Bft) 0,00 %
30.04.2015 18:00 13,7 C 49 % 1014,3 hPa 0,0 l/m 0,3 km/h (0 Bft) SO 1,00 h 0,000 mm 1,0 UV-I 593 W/m 3,1 C 13,7 C 1,0 km/h (0 Bft) 0,00 %
30.04.2015 19:00 11,6 C 63 % 1014,2 hPa 0,0 l/m 0,0 km/h (0 Bft) N 1,00 h 0,000 mm 1,0 UV-I 288 W/m 4,7 C 11,6 C 0,0 km/h (0 Bft) 0,00 %
30.04.2015 20:00 8,9 C 82 % 1014,3 hPa 0,0 l/m 0,4 km/h (0 Bft) O 0,25 h 0,000 mm 0,0 UV-I 18 W/m 6,0 C 8,9 C 1,0 km/h (0 Bft) 0,00 %
30.04.2015 21:00 7,9 C 84 % 1014,0 hPa 0,0 l/m 0,3 km/h (0 Bft) N 0,00 h 0,000 mm 0,0 UV-I 0 W/m 5,3 C 7,9 C 2,0 km/h (1 Bft) 0,00 %
30.04.2015 22:00 7,4 C 85 % 1013,3 hPa 0,0 l/m 1,5 km/h (1 Bft) O 0,00 h 0,000 mm 0,0 UV-I 0 W/m 5,0 C 7,4 C 2,0 km/h (1 Bft) 0,00 %
30.04.2015 23:00 6,8 C 89 % 1013,3 hPa 0,0 l/m 0,0 km/h (0 Bft) N 0,00 h 0,000 mm 0,0 UV-I 0 W/m 5,2 C 6,8 C 0,0 km/h (0 Bft) 0,00 %
01.05.2015 00:00 6,2 C 94 % 1013,3 hPa 0,0 l/m 0,0 km/h (0 Bft) N 0,00 h 0,000 mm 0,0 UV-I 0 W/m 5,2 C 6,2 C 0,0 km/h (0 Bft) 0,00 %
01.05.2015 01:00 6,4 C 96 % 1013,7 hPa 0,0 l/m 0,0 km/h (0 Bft) N 0,00 h 0,000 mm 0,0 UV-I 0 W/m 5,8 C 6,4 C 0,0 km/h (0 Bft) 0,00 %
01.05.2015 02:00 6,9 C 97 % 1013,1 hPa 0,3 l/m 0,0 km/h (0 Bft) N 0,00 h 0,000 mm 0,0 UV-I 0 W/m 6,5 C 6,9 C 0,0 km/h (0 Bft) 0,00 %
01.05.2015 03:00 6,6 C 97 % 1011,8 hPa 0,3 l/m 0,0 km/h (0 Bft) N 0,00 h 0,000 mm 0,0 UV-I 0 W/m 6,2 C 6,6 C 0,0 km/h (0 Bft) 0,00 %
01.05.2015 04:00 6,4 C 97 % 1010,7 hPa 0,0 l/m 0,1 km/h (0 Bft) N 0,00 h 0,000 mm 0,0 UV-I 0 W/m 6,0 C 6,4 C 1,0 km/h (0 Bft) 0,00 %
01.05.2015 05:00 6,7 C 97 % 1010,4 hPa 0,6 l/m 0,0 km/h (0 Bft) N 0,00 h 0,000 mm 0,0 UV-I 0 W/m 6,2 C 6,7 C 0,0 km/h (0 Bft) 0,00 %
01.05.2015 06:00 6,7 C 97 % 1010,5 hPa 0,6 l/m 0,0 km/h (0 Bft) N 0,00 h 0,000 mm 0,0 UV-I 1 W/m 6,3 C 6,7 C 0,0 km/h (0 Bft) 0,00 %
01.05.2015 07:00 7,3 C 98 % 1010,3 hPa 0,9 l/m 0,0 km/h (0 Bft) N 0,00 h 0,000 mm 1,0 UV-I 27 W/m 7,0 C 7,3 C 0,0 km/h (0 Bft) 0,00 %
01.05.2015 08:00 8,2 C 98 % 1010,0 hPa 0,6 l/m 0,0 km/h (0 Bft) N 0,00 h 0,000 mm 1,0 UV-I 78 W/m 7,9 C 8,2 C 0,0 km/h (0 Bft) 0,00 %
01.05.2015 09:00 9,3 C 93 % 1009,6 hPa 0,6 l/m 0,0 km/h (0 Bft) N 0,00 h 0,000 mm 1,0 UV-I 165 W/m 8,2 C 9,3 C 0,0 km/h (0 Bft) 0,00 %
01.05.2015 10:00 10,0 C 88 % 1009,0 hPa 0,3 l/m 0,1 km/h (0 Bft) N 0,00 h 0,000 mm 1,7 UV-I 187 W/m 8,1 C 10,0 C 1,0 km/h (0 Bft) 0,00 %
01.05.2015 11:00 11,4 C 80 % 1008,1 hPa 0,0 l/m 0,6 km/h (0 Bft) SO 0,00 h 0,000 mm 2,3 UV-I 304 W/m 8,1 C 11,4 C 1,0 km/h (0 Bft) 0,00 %
01.05.2015 12:00 12,4 C 72 % 1007,3 hPa 0,0 l/m 0,0 km/h (0 Bft) NO 0,00 h 0,000 mm 2,3 UV-I 360 W/m 7,5 C 12,4 C 0,0 km/h (0 Bft) 0,00 %
01.05.2015 13:00 11,6 C 77 % 1007,1 hPa 0,0 l/m 0,3 km/h (0 Bft) N 0,00 h 0,000 mm 2,0 UV-I 295 W/m 7,8 C 11,6 C 1,0 km/h (0 Bft) 0,00 %
01.05.2015 14:00 11,5 C 79 % 1006,7 hPa 0,3 l/m 0,0 km/h (0 Bft) N 0,00 h 0,000 mm 2,3 UV-I 260 W/m 7,9 C 11,5 C 0,0 km/h (0 Bft) 0,00 %
01.05.2015 15:00 11,3 C 82 % 1006,5 hPa 0,3 l/m 0,0 km/h (0 Bft) N 0,00 h 0,000 mm 1,7 UV-I 261 W/m 8,2 C 11,3 C 0,0 km/h (0 Bft) 0,00 %
01.05.2015 16:00 11,0 C 85 % 1006,0 hPa 0,6 l/m 0,0 km/h (0 Bft) N 0,00 h 0,000 mm 1,0 UV-I 158 W/m 8,6 C 11,0 C 0,0 km/h (0 Bft) 0,00 %
01.05.2015 17:00 10,8 C 88 % 1005,2 hPa 0,3 l/m 2,3 km/h (1 Bft) O-SO 0,00 h 0,000 mm 1,0 UV-I 143 W/m 8,8 C 10,7 C 4,0 km/h (1 Bft) 0,00 %
01.05.2015 18:00 10,6 C 89 % 1004,2 hPa 0,0 l/m 1,9 km/h (1 Bft) O-SO 0,00 h 0,000 mm 1,0 UV-I 126 W/m 8,8 C 10,6 C 4,0 km/h (1 Bft) 0,00 %
01.05.2015 19:00 10,2 C 92 % 1003,7 hPa 0,3 l/m 3,2 km/h (1 Bft) O-NO 0,00 h 0,000 mm 0,0 UV-I 27 W/m 8,9 C 10,2 C 5,0 km/h (1 Bft) 0,00 %
01.05.2015 20:00 10,0 C 95 % 1003,7 hPa 1,2 l/m 0,1 km/h (0 Bft) N 0,00 h 0,000 mm 0,0 UV-I 1 W/m 9,1 C 10,0 C 1,0 km/h (0 Bft) 0,00 %
01.05.2015 21:00 9,9 C 97 % 1003,7 hPa 0,9 l/m 2,2 km/h (1 Bft) O 0,00 h 0,000 mm 0,0 UV-I 0 W/m 9,4 C 9,9 C 5,0 km/h (1 Bft) 0,00 %
01.05.2015 22:00 9,6 C 98 % 1003,4 hPa 1,2 l/m 0,2 km/h (0 Bft) N 0,00 h 0,000 mm 0,0 UV-I 0 W/m 9,3 C 9,6 C 2,0 km/h (1 Bft) 0,00 %
01.05.2015 23:00 9,6 C 99 % 1003,2 hPa 0,6 l/m 0,0 km/h (0 Bft) N 0,00 h 0,000 mm 0,0 UV-I 0 W/m 9,3 C 9,6 C 0,0 km/h (0 Bft) 0,00 %
02.05.2015 00:00 9,5 C 99 % 1003,4 hPa 0,3 l/m 0,4 km/h (0 Bft) O-SO 0,00 h 0,000 mm 0,0 UV-I 0 W/m 9,4 C 9,5 C 1,0 km/h (0 Bft) 0,00 %
02.05.2015 01:00 9,5 C 99 % 1003,4 hPa 1,2 l/m 0,0 km/h (0 Bft) N 0,00 h 0,000 mm 0,0 UV-I 0 W/m 9,4 C 9,5 C 0,0 km/h (0 Bft) 0,00 %
02.05.2015 02:00 9,5 C 99 % 1003,3 hPa 2,1 l/m 0,0 km/h (0 Bft) N 0,00 h 0,000 mm 0,0 UV-I 0 W/m 9,4 C 9,5 C 0,0 km/h (0 Bft) 0,00 %
02.05.2015 03:00 9,6 C 99 % 1003,8 hPa 1,2 l/m 0,0 km/h (0 Bft) N 0,00 h 0,000 mm 0,0 UV-I 0 W/m 9,4 C 9,6 C 0,0 km/h (0 Bft) 0,00 %
02.05.2015 04:00 9,6 C 99 % 1004,0 hPa 0,3 l/m 0,0 km/h (0 Bft) N 0,00 h 0,000 mm 0,0 UV-I 0 W/m 9,4 C 9,6 C 0,0 km/h (0 Bft) 0,00 %
02.05.2015 05:00 9,5 C 99 % 1004,3 hPa 5,4 l/m 0,0 km/h (0 Bft) N 0,00 h 0,000 mm 0,0 UV-I 0 W/m 9,4 C 9,5 C 0,0 km/h (0 Bft) 0,00 %
02.05.2015 06:00 9,3 C 99 % 1006,0 hPa 2,7 l/m 0,1 km/h (0 Bft) N 0,00 h 0,000 mm 0,0 UV-I 12 W/m 9,2 C 9,3 C 1,0 km/h (0 Bft) 0,00 %
02.05.2015 07:00 9,2 C 99 % 1007,6 hPa 0,0 l/m 0,3 km/h (0 Bft) N 0,00 h 0,000 mm 1,0 UV-I 54 W/m 9,1 C 9,2 C 2,0 km/h (1 Bft) 0,00 %
02.05.2015 08:00 9,3 C 99 % 1009,0 hPa 0,0 l/m 0,0 km/h (0 Bft) SW 0,00 h 0,000 mm 1,0 UV-I 74 W/m 9,1 C 9,3 C 0,0 km/h (0 Bft) 0,00 %
02.05.2015 09:00 9,6 C 99 % 1009,9 hPa 0,3 l/m 0,3 km/h (0 Bft) N 0,00 h 0,000 mm 1,0 UV-I 90 W/m 9,4 C 9,6 C 1,0 km/h (0 Bft) 0,00 %
02.05.2015 10:00 10,1 C 97 % 1010,5 hPa 0,0 l/m 0,0 km/h (0 Bft) N 0,00 h 0,000 mm 1,3 UV-I 110 W/m 9,6 C 10,1 C 0,0 km/h (0 Bft) 0,00 %
02.05.2015 11:00 11,0 C 94 % 1011,1 hPa 0,0 l/m 1,3 km/h (1 Bft) SW 0,00 h 0,000 mm 2,0 UV-I 215 W/m 9,9 C 11,0 C 4,0 km/h (1 Bft) 0,00 %
02.05.2015 12:00 12,2 C 83 % 1011,3 hPa 0,0 l/m 1,1 km/h (0 Bft) SW 0,00 h 0,000 mm 2,3 UV-I 281 W/m 9,3 C 12,2 C 3,0 km/h (1 Bft) 0,00 %
02.05.2015 13:00 13,2 C 75 % 1011,1 hPa 0,0 l/m 1,6 km/h (1 Bft) W-SW 0,25 h 0,000 mm 2,3 UV-I 314 W/m 8,9 C 13,2 C 3,0 km/h (1 Bft) 0,00 %
02.05.2015 14:00 14,9 C 68 % 1010,8 hPa 0,0 l/m 0,9 km/h (0 Bft) W 0,75 h 0,000 mm 4,0 UV-I 489 W/m 9,0 C 14,9 C 3,0 km/h (1 Bft) 0,00 %
02.05.2015 15:00 15,4 C 63 % 1010,7 hPa 0,0 l/m 1,9 km/h (1 Bft) SW 0,50 h 0,000 mm 2,3 UV-I 353 W/m 8,3 C 15,4 C 4,0 km/h (1 Bft) 0,00 %
02.05.2015 16:00 15,4 C 63 % 1010,8 hPa 0,0 l/m 2,3 km/h (1 Bft) SW 0,25 h 0,000 mm 2,0 UV-I 311 W/m 8,4 C 15,4 C 5,0 km/h (1 Bft) 0,00 %
02.05.2015 17:00 15,3 C 63 % 1011,0 hPa 0,0 l/m 0,1 km/h (0 Bft) N 0,25 h 0,000 mm 1,3 UV-I 217 W/m 8,3 C 15,3 C 1,0 km/h (0 Bft) 0,00 %
02.05.2015 18:00 14,4 C 69 % 1011,3 hPa 0,0 l/m 0,3 km/h (0 Bft) N 0,00 h 0,000 mm 1,0 UV-I 104 W/m 8,7 C 14,4 C 2,0 km/h (1 Bft) 0,00 %
02.05.2015 19:00 13,4 C 76 % 1011,7 hPa 0,0 l/m 0,0 km/h (0 Bft) N 0,00 h 0,000 mm 0,0 UV-I 48 W/m 9,2 C 13,4 C 0,0 km/h (0 Bft) 0,00 %
02.05.2015 20:00 12,3 C 83 % 1011,9 hPa 0,0 l/m 0,0 km/h (0 Bft) N 0,00 h 0,000 mm 0,0 UV-I 0 W/m 9,4 C 12,3 C 0,0 km/h (0 Bft) 0,00 %
02.05.2015 21:00 11,0 C 89 % 1012,3 hPa 0,0 l/m 0,0 km/h (0 Bft) N 0,00 h 0,000 mm 0,0 UV-I 0 W/m 9,3 C 11,0 C 0,0 km/h (0 Bft) 0,00 %
02.05.2015 22:00 10,6 C 92 % 1012,4 hPa 0,0 l/m 0,2 km/h (0 Bft) N 0,00 h 0,000 mm 0,0 UV-I 0 W/m 9,3 C 10,6 C 1,0 km/h (0 Bft) 0,00 %
02.05.2015 23:00 9,7 C 94 % 1012,1 hPa 0,0 l/m 0,0 km/h (0 Bft) N 0,00 h 0,000 mm 0,0 UV-I 0 W/m 8,8 C 9,7 C 0,0 km/h (0 Bft) 0,00 %
03.05.2015 00:00 9,6 C 96 % 1011,8 hPa 0,0 l/m 0,1 km/h (0 Bft) N 0,00 h 0,000 mm 0,0 UV-I 0 W/m 8,9 C 9,6 C 1,0 km/h (0 Bft) 0,00 %
03.05.2015 01:00 9,1 C 96 % 1011,5 hPa 0,0 l/m 0,6 km/h (0 Bft) O-SO 0,00 h 0,000 mm 0,0 UV-I 0 W/m 8,6 C 9,1 C 2,0 km/h (1 Bft) 0,00 %
03.05.2015 02:00 9,1 C 98 % 1011,1 hPa 0,0 l/m 1,5 km/h (1 Bft) O 0,00 h 0,000 mm 0,0 UV-I 0 W/m 8,8 C 9,1 C 3,0 km/h (1 Bft) 0,00 %
03.05.2015 03:00 9,3 C 99 % 1010,8 hPa 0,3 l/m 1,6 km/h (1 Bft) O 0,00 h 0,000 mm 0,0 UV-I 0 W/m 9,2 C 9,3 C 4,0 km/h (1 Bft) 0,00 %
03.05.2015 04:00 9,3 C 99 % 1010,4 hPa 0,0 l/m 0,0 km/h (0 Bft) N 0,00 h 0,000 mm 0,0 UV-I 0 W/m 9,2 C 9,3 C 0,0 km/h (0 Bft) 0,00 %
03.05.2015 05:00 9,1 C 99 % 1010,3 hPa 0,9 l/m 0,0 km/h (0 Bft) N 0,00 h 0,000 mm 0,0 UV-I 0 W/m 9,0 C 9,1 C 0,0 km/h (0 Bft) 0,00 %
03.05.2015 06:00 9,1 C 99 % 1010,2 hPa 0,3 l/m 0,9 km/h (0 Bft) O-SO 0,00 h 0,000 mm 0,0 UV-I 12 W/m 8,9 C 9,1 C 2,0 km/h (1 Bft) 0,00 %
03.05.2015 07:00 9,1 C 99 % 1010,4 hPa 0,6 l/m 1,3 km/h (1 Bft) O-SO 0,00 h 0,000 mm 1,0 UV-I 43 W/m 9,0 C 9,1 C 3,0 km/h (1 Bft) 0,00 %
03.05.2015 08:00 9,7 C 98 % 1010,0 hPa 0,6 l/m 1,5 km/h (1 Bft) SO 0,00 h 0,000 mm 1,3 UV-I 138 W/m 9,4 C 9,7 C 3,0 km/h (1 Bft) 0,00 %
03.05.2015 09:00 10,5 C 95 % 1009,7 hPa 0,0 l/m 3,0 km/h (1 Bft) O 0,00 h 0,000 mm 2,0 UV-I 215 W/m 9,8 C 10,5 C 6,9 km/h (2 Bft) 0,00 %
03.05.2015 10:00 11,3 C 92 % 1009,4 hPa 0,0 l/m 2,0 km/h (1 Bft) SO 0,00 h 0,000 mm 1,7 UV-I 219 W/m 10,1 C 11,3 C 4,0 km/h (1 Bft) 0,00 %
03.05.2015 11:00 12,8 C 86 % 1009,2 hPa 0,0 l/m 1,5 km/h (1 Bft) O-SO 0,00 h 0,000 mm 2,3 UV-I 309 W/m 10,4 C 12,8 C 3,0 km/h (1 Bft) 0,00 %
03.05.2015 12:00 13,7 C 82 % 1008,8 hPa 0,0 l/m 2,1 km/h (1 Bft) O 0,25 h 0,000 mm 3,0 UV-I 391 W/m 10,7 C 13,7 C 5,0 km/h (1 Bft) 0,00 %
03.05.2015 13:00 14,9 C 82 % 1008,8 hPa 0,3 l/m 0,1 km/h (0 Bft) N 0,25 h 0,000 mm 3,3 UV-I 371 W/m 11,8 C 14,9 C 1,0 km/h (0 Bft) 0,00 %
03.05.2015 14:00 15,2 C 83 % 1008,8 hPa 0,3 l/m 0,9 km/h (0 Bft) O 0,00 h 0,000 mm 2,0 UV-I 189 W/m 12,3 C 15,2 C 2,0 km/h (1 Bft) 0,00 %
03.05.2015 15:00 14,6 C 88 % 1008,8 hPa 0,3 l/m 0,7 km/h (0 Bft) O-SO 0,00 h 0,000 mm 1,0 UV-I 131 W/m 12,7 C 14,6 C 2,0 km/h (1 Bft) 0,00 %
03.05.2015 16:00 15,0 C 90 % 1008,4 hPa 0,3 l/m 0,3 km/h (0 Bft) N 0,00 h 0,000 mm 1,0 UV-I 149 W/m 13,4 C 15,0 C 1,0 km/h (0 Bft) 0,00 %
03.05.2015 17:00 15,1 C 91 % 1008,4 hPa 1,2 l/m 0,0 km/h (0 Bft) N 0,00 h 0,000 mm 1,0 UV-I 60 W/m 13,6 C 15,1 C 0,0 km/h (0 Bft) 0,00 %
03.05.2015 18:00 15,2 C 93 % 1008,5 hPa 2,1 l/m 0,0 km/h (0 Bft) N 0,00 h 0,000 mm 1,0 UV-I 67 W/m 14,1 C 15,2 C 0,0 km/h (0 Bft) 0,00 %
03.05.2015 19:00 15,2 C 94 % 1008,2 hPa 0,0 l/m 0,0 km/h (0 Bft) N 0,00 h 0,000 mm 0,0 UV-I 23 W/m 14,2 C 15,2 C 0,0 km/h (0 Bft) 0,00 %
03.05.2015 20:00 14,6 C 94 % 1007,7 hPa 0,0 l/m 0,3 km/h (0 Bft) SO 0,00 h 0,000 mm 0,0 UV-I 0 W/m 13,7 C 14,6 C 1,0 km/h (0 Bft) 0,00 %
03.05.2015 21:00 14,3 C 96 % 1007,7 hPa 0,0 l/m 0,4 km/h (0 Bft) SO 0,00 h 0,000 mm 0,0 UV-I 0 W/m 13,7 C 14,3 C 2,0 km/h (1 Bft) 0,00 %
03.05.2015 22:00 13,8 C 97 % 1008,0 hPa 0,0 l/m 0,4 km/h (0 Bft) O-SO 0,00 h 0,000 mm 0,0 UV-I 0 W/m 13,3 C 13,8 C 2,0 km/h (1 Bft) 0,00 %
03.05.2015 23:00 13,6 C 98 % 1008,2 hPa 0,0 l/m 0,0 km/h (0 Bft) N 0,00 h 0,000 mm 0,0 UV-I 0 W/m 13,3 C 13,6 C 0,0 km/h (0 Bft) 0,00 %
Min-Datum _ 30.04.15 27.04.15 27.04.15 - 27.04.15 - - - - - 29.04.15 28.04.15 27.04.15 27.04.15
_ Min-Zeit 05:45 14:45 18:45 - 00:00 - - - - - 15:45 18:45 00:00 00:00
Minimum _ 2,0 C 26 % 993,3 hPa - 0,0 km/h (0 Bft) - - - - - -1,9 C 0,0 C 0,0 km/h (0 Bft) 0,00 %
Max-Datum _ 27.04.15 27.04.15 29.04.15 02.05.15 28.04.15 - 27.04.15 27.04.15 27.04.15 27.04.15 03.05.15 27.04.15 28.04.15 27.04.15
_ Max-Zeit 14:45 05:30 03:30 05:30 14:15 - 06:15 00:00 12:45 11:45 19:00 14:45 14:15 00:00
Maximum _ 25,1 C 99 % 1022,0 hPa 5,4 l/m 26,6 km/h
W-NW (4 Bft)
- 0,25 h 0,000 mm 6,0 UV-I 934 W/m 14,3 C 25,1 C 32,0 km/h
W-NW (5 Bft)
0,00 %
Durchschnitt _ 11,0 C 78 % 1009,4 hPa #35,1 l/m 1,8 km/h (1 Bft) O-SO #32:30 h #0,000 mm 2,0 UV-I 265 W/m 6,7 C 10,8 C 3,2 km/h (1 Bft) 0,00 %